PBD731 UWSG-UWWW
Flight info
| Callsign | PBD731 |
|---|---|
| Flight time | 1h 17m |
| Altitude | 27000 |
| Route | BEBNO1K BEBNO P135 TUNIG TUNIG2F |
| Aircraft | B738/M-SDE2E3FGHIRWXY/LB1 |
Departure
| Time | 2026-04-22 18:05 |
|---|---|
| Airport | Gagarin International Airport (UWSG) |
Arrival
| Time | 2026-04-22 19:23 |
|---|---|
| Airport | Kurumoch International Airport (UWWW) |
| Time | Latitude | Longitude | Altitude | Speed | Heading |
|---|---|---|---|---|---|
| 2026-04-22 17:48 | 51.71601 | 46.16869 | 6 ft | 0 kts | 49° |
| 2026-04-22 18:00 | 51.71621 | 46.16905 | 6 ft | 10 kts | 49° |
| 2026-04-22 18:01 | 51.71666 | 46.17062 | 6 ft | 22 kts | 91° |
| 2026-04-22 18:01 | 51.71658 | 46.17368 | 6 ft | 26 kts | 100° |
| 2026-04-22 18:01 | 51.71533 | 46.17425 | 6 ft | 19 kts | 182° |
| 2026-04-22 18:01 | 51.71401 | 46.17417 | 6 ft | 16 kts | 181° |
| 2026-04-22 18:02 | 51.71373 | 46.17416 | 6 ft | 0 kts | 182° |
| 2026-04-22 18:02 | 51.71371 | 46.17416 | 6 ft | 1 kts | 182° |
| 2026-04-22 18:02 | 51.71364 | 46.17415 | 6 ft | 1 kts | 182° |
| 2026-04-22 18:02 | 51.71294 | 46.17416 | 6 ft | 20 kts | 164° |
| 2026-04-22 18:03 | 51.71252 | 46.17677 | 6 ft | 31 kts | 92° |
| 2026-04-22 18:03 | 51.71243 | 46.18099 | 6 ft | 45 kts | 92° |
| 2026-04-22 18:03 | 51.71230 | 46.18610 | 6 ft | 45 kts | 91° |
| 2026-04-22 18:03 | 51.71235 | 46.19088 | 6 ft | 36 kts | 67° |
| 2026-04-22 18:04 | 51.71212 | 46.19175 | 6 ft | 12 kts | 278° |
| 2026-04-22 18:04 | 51.71217 | 46.19106 | 6 ft | 0 kts | 275° |
| 2026-04-22 18:04 | 51.71217 | 46.19098 | 6 ft | 3 kts | 275° |
| 2026-04-22 18:04 | 51.71226 | 46.18691 | 6 ft | 73 kts | 272° |
| 2026-04-22 18:05 | 51.71254 | 46.17505 | 6 ft | 136 kts | 272° |
| 2026-04-22 18:05 | 51.71318 | 46.15760 | 266 ft | 164 kts | 276° |
| 2026-04-22 18:05 | 51.71401 | 46.13949 | 974 ft | 167 kts | 274° |
| 2026-04-22 18:05 | 51.71428 | 46.12120 | 1688 ft | 164 kts | 276° |
| 2026-04-22 18:06 | 51.71464 | 46.10203 | 2057 ft | 179 kts | 276° |
| 2026-04-22 18:06 | 51.71511 | 46.08129 | 2456 ft | 191 kts | 276° |
| 2026-04-22 18:06 | 51.71806 | 46.05987 | 2744 ft | 205 kts | 305° |
| 2026-04-22 18:06 | 51.72921 | 46.04537 | 3114 ft | 218 kts | 342° |
| 2026-04-22 18:07 | 51.74448 | 46.04380 | 3590 ft | 231 kts | 11° |
| 2026-04-22 18:07 | 51.75945 | 46.05512 | 4040 ft | 248 kts | 37° |
| 2026-04-22 18:07 | 51.77127 | 46.07603 | 4636 ft | 259 kts | 51° |
| 2026-04-22 18:07 | 51.78149 | 46.10007 | 5275 ft | 265 kts | 54° |
| 2026-04-22 18:08 | 51.79182 | 46.12490 | 5946 ft | 270 kts | 53° |
| 2026-04-22 18:08 | 51.80251 | 46.14975 | 6602 ft | 275 kts | 53° |
| 2026-04-22 18:08 | 51.81369 | 46.17493 | 7301 ft | 278 kts | 52° |
| 2026-04-22 18:08 | 51.82492 | 46.19995 | 7964 ft | 281 kts | 52° |
| 2026-04-22 18:09 | 51.83650 | 46.22577 | 8622 ft | 285 kts | 52° |
| 2026-04-22 18:09 | 51.84811 | 46.25178 | 9274 ft | 289 kts | 53° |
| 2026-04-22 18:09 | 51.85975 | 46.27801 | 9891 ft | 293 kts | 53° |
| 2026-04-22 18:09 | 51.87194 | 46.30542 | 10282 ft | 307 kts | 53° |
| 2026-04-22 18:10 | 51.88469 | 46.33400 | 10605 ft | 322 kts | 53° |
| 2026-04-22 18:10 | 51.89796 | 46.36362 | 11038 ft | 332 kts | 53° |
| 2026-04-22 18:10 | 51.91154 | 46.39389 | 11680 ft | 337 kts | 53° |
| 2026-04-22 18:10 | 51.92541 | 46.42489 | 12356 ft | 341 kts | 53° |
| 2026-04-22 18:11 | 51.93915 | 46.45579 | 13003 ft | 345 kts | 53° |
| 2026-04-22 18:11 | 51.95316 | 46.48729 | 13692 ft | 348 kts | 53° |
| 2026-04-22 18:11 | 51.96743 | 46.51944 | 14367 ft | 353 kts | 53° |
| 2026-04-22 18:11 | 51.98179 | 46.55167 | 14978 ft | 358 kts | 53° |
| 2026-04-22 18:12 | 51.99647 | 46.58472 | 15724 ft | 360 kts | 53° |
| 2026-04-22 18:12 | 52.01099 | 46.61749 | 16469 ft | 361 kts | 53° |
| 2026-04-22 18:12 | 52.02564 | 46.65064 | 17138 ft | 364 kts | 54° |
| 2026-04-22 18:12 | 52.04039 | 46.68407 | 17806 ft | 367 kts | 54° |
| 2026-04-22 18:13 | 52.05521 | 46.71771 | 18476 ft | 369 kts | 54° |
| 2026-04-22 18:13 | 52.07008 | 46.75155 | 19115 ft | 372 kts | 54° |
| 2026-04-22 18:13 | 52.08505 | 46.78562 | 19702 ft | 376 kts | 54° |
| 2026-04-22 18:13 | 52.10031 | 46.82044 | 20319 ft | 379 kts | 54° |
| 2026-04-22 18:14 | 52.11551 | 46.85519 | 20905 ft | 383 kts | 54° |
| 2026-04-22 18:14 | 52.13096 | 46.89053 | 21476 ft | 386 kts | 54° |
| 2026-04-22 18:14 | 52.14665 | 46.92650 | 22003 ft | 390 kts | 55° |
| 2026-04-22 18:14 | 52.16213 | 46.96203 | 22553 ft | 393 kts | 55° |
| 2026-04-22 18:15 | 52.17802 | 46.99862 | 23086 ft | 397 kts | 55° |
| 2026-04-22 18:15 | 52.19401 | 47.03549 | 23594 ft | 400 kts | 55° |
| 2026-04-22 18:15 | 52.21018 | 47.07283 | 24096 ft | 404 kts | 55° |
| 2026-04-22 18:15 | 52.22644 | 47.11040 | 24590 ft | 407 kts | 55° |
| 2026-04-22 18:16 | 52.24268 | 47.14795 | 25068 ft | 409 kts | 55° |
| 2026-04-22 18:16 | 52.25917 | 47.18616 | 25502 ft | 412 kts | 55° |
| 2026-04-22 18:16 | 52.27552 | 47.22410 | 25940 ft | 415 kts | 55° |
| 2026-04-22 18:16 | 52.29217 | 47.26277 | 26369 ft | 417 kts | 55° |
| 2026-04-22 18:17 | 52.30889 | 47.30167 | 26672 ft | 420 kts | 54° |
| 2026-04-22 18:17 | 52.32568 | 47.34077 | 26683 ft | 422 kts | 55° |
| 2026-04-22 18:17 | 52.34240 | 47.37978 | 26681 ft | 420 kts | 55° |
| 2026-04-22 18:17 | 52.35898 | 47.41851 | 26682 ft | 420 kts | 55° |
| 2026-04-22 18:18 | 52.37563 | 47.45744 | 26683 ft | 420 kts | 55° |
| 2026-04-22 18:18 | 52.39239 | 47.49670 | 26681 ft | 422 kts | 55° |
| 2026-04-22 18:18 | 52.40929 | 47.53633 | 26681 ft | 421 kts | 55° |
| 2026-04-22 18:18 | 52.42584 | 47.57519 | 26682 ft | 421 kts | 55° |
| 2026-04-22 18:19 | 52.44254 | 47.61449 | 26682 ft | 421 kts | 55° |
| 2026-04-22 18:19 | 52.45921 | 47.65375 | 26578 ft | 419 kts | 56° |
| 2026-04-22 18:19 | 52.47577 | 47.69283 | 26316 ft | 411 kts | 56° |
| 2026-04-22 18:19 | 52.49171 | 47.73050 | 26064 ft | 403 kts | 56° |
| 2026-04-22 18:20 | 52.50758 | 47.76802 | 25812 ft | 401 kts | 56° |
| 2026-04-22 18:20 | 52.52354 | 47.80583 | 25554 ft | 402 kts | 56° |
| 2026-04-22 18:20 | 52.53940 | 47.84343 | 25301 ft | 401 kts | 56° |
| 2026-04-22 18:20 | 52.55503 | 47.88053 | 25041 ft | 399 kts | 56° |
| 2026-04-22 18:21 | 52.56581 | 47.90616 | 24866 ft | 398 kts | 56° |
| 2026-04-22 18:21 | 52.58159 | 47.94370 | 24598 ft | 396 kts | 56° |
| 2026-04-22 18:21 | 52.59705 | 47.98053 | 24318 ft | 396 kts | 56° |
| 2026-04-22 18:21 | 52.61270 | 48.01787 | 24032 ft | 394 kts | 56° |
| 2026-04-22 18:22 | 52.62823 | 48.05498 | 23750 ft | 392 kts | 56° |
| 2026-04-22 18:22 | 52.64353 | 48.09161 | 23471 ft | 391 kts | 56° |
| 2026-04-22 18:22 | 52.65876 | 48.12812 | 23188 ft | 389 kts | 56° |
| 2026-04-22 18:22 | 52.67399 | 48.16469 | 22829 ft | 382 kts | 56° |
| 2026-04-22 18:23 | 52.68878 | 48.20028 | 22374 ft | 378 kts | 56° |
| 2026-04-22 18:23 | 52.70344 | 48.23560 | 21887 ft | 375 kts | 56° |
| 2026-04-22 18:23 | 52.71818 | 48.27110 | 21384 ft | 372 kts | 56° |
| 2026-04-22 18:24 | 52.74703 | 48.34070 | 20380 ft | 367 kts | 56° |
| 2026-04-22 18:24 | 52.76122 | 48.37503 | 19886 ft | 364 kts | 56° |
| 2026-04-22 18:24 | 52.78941 | 48.44334 | 18903 ft | 359 kts | 56° |
| 2026-04-22 18:25 | 52.80332 | 48.47712 | 18419 ft | 356 kts | 56° |
| 2026-04-22 18:25 | 52.81717 | 48.51080 | 17932 ft | 354 kts | 56° |
| 2026-04-22 18:25 | 52.83086 | 48.54415 | 17449 ft | 352 kts | 56° |
| 2026-04-22 18:26 | 52.85803 | 48.61045 | 16480 ft | 347 kts | 56° |
| 2026-04-22 18:26 | 52.87156 | 48.64352 | 15995 ft | 345 kts | 56° |
| 2026-04-22 18:26 | 52.88496 | 48.67635 | 15516 ft | 342 kts | 57° |
| 2026-04-22 18:26 | 52.89817 | 48.70877 | 15039 ft | 340 kts | 57° |
| 2026-04-22 18:27 | 52.91124 | 48.74088 | 14569 ft | 337 kts | 57° |
| 2026-04-22 18:27 | 52.92427 | 48.77294 | 14097 ft | 335 kts | 57° |
| 2026-04-22 18:27 | 52.93702 | 48.80447 | 13627 ft | 333 kts | 57° |
| 2026-04-22 18:27 | 52.94993 | 48.83635 | 13149 ft | 332 kts | 57° |
| 2026-04-22 18:28 | 52.96263 | 48.86775 | 12694 ft | 330 kts | 57° |
| 2026-04-22 18:28 | 52.97549 | 48.89956 | 12202 ft | 329 kts | 57° |
| 2026-04-22 18:28 | 52.98799 | 48.93055 | 11749 ft | 326 kts | 57° |
| 2026-04-22 18:28 | 53.00053 | 48.96165 | 11297 ft | 323 kts | 57° |
| 2026-04-22 18:29 | 53.01299 | 48.99242 | 10833 ft | 320 kts | 56° |
| 2026-04-22 18:29 | 53.02523 | 49.02282 | 10385 ft | 318 kts | 57° |
| 2026-04-22 18:29 | 53.03735 | 49.05302 | 9999 ft | 312 kts | 57° |
| 2026-04-22 18:29 | 53.04922 | 49.08247 | 9797 ft | 301 kts | 57° |
| 2026-04-22 18:30 | 53.06063 | 49.11092 | 9544 ft | 292 kts | 57° |
| 2026-04-22 18:30 | 53.08269 | 49.16557 | 8757 ft | 276 kts | 53° |
| 2026-04-22 18:30 | 53.09559 | 49.18832 | 8701 ft | 269 kts | 39° |
| 2026-04-22 18:31 | 53.11090 | 49.20725 | 8666 ft | 276 kts | 34° |
| 2026-04-22 18:31 | 53.12706 | 49.22458 | 8675 ft | 275 kts | 26° |
| 2026-04-22 18:31 | 53.14483 | 49.23556 | 8678 ft | 275 kts | 14° |
| 2026-04-22 18:31 | 53.16352 | 49.24361 | 8667 ft | 276 kts | 12° |
| 2026-04-22 18:32 | 53.18214 | 49.25119 | 8674 ft | 275 kts | 12° |
| 2026-04-22 18:32 | 53.20074 | 49.25873 | 8662 ft | 273 kts | 11° |
| 2026-04-22 18:32 | 53.21909 | 49.26613 | 8654 ft | 273 kts | 12° |
| 2026-04-22 18:32 | 53.23755 | 49.27368 | 8664 ft | 274 kts | 12° |
| 2026-04-22 18:33 | 53.25601 | 49.28136 | 8661 ft | 273 kts | 12° |
| 2026-04-22 18:33 | 53.27441 | 49.28916 | 8661 ft | 274 kts | 12° |
| 2026-04-22 18:33 | 53.29275 | 49.29689 | 8662 ft | 274 kts | 12° |
| 2026-04-22 18:33 | 53.31132 | 49.30469 | 8657 ft | 272 kts | 11° |
| 2026-04-22 18:34 | 53.32939 | 49.31223 | 8672 ft | 272 kts | 12° |
| 2026-04-22 18:34 | 53.34777 | 49.31989 | 8672 ft | 275 kts | 12° |
| 2026-04-22 18:34 | 53.36638 | 49.32771 | 8672 ft | 273 kts | 13° |
| 2026-04-22 18:34 | 53.38467 | 49.33540 | 8671 ft | 273 kts | 12° |
| 2026-04-22 18:35 | 53.40329 | 49.34323 | 8670 ft | 274 kts | 12° |
| 2026-04-22 18:35 | 53.42152 | 49.35093 | 8668 ft | 274 kts | 12° |
| 2026-04-22 18:35 | 53.44019 | 49.35881 | 8674 ft | 274 kts | 12° |
| 2026-04-22 18:35 | 53.45841 | 49.36651 | 8674 ft | 273 kts | 12° |
| 2026-04-22 18:36 | 53.47688 | 49.37431 | 8677 ft | 274 kts | 12° |
| 2026-04-22 18:36 | 53.49529 | 49.38211 | 8684 ft | 274 kts | 12° |
| 2026-04-22 18:36 | 53.51373 | 49.38995 | 8683 ft | 273 kts | 12° |
| 2026-04-22 18:36 | 53.53207 | 49.39777 | 8678 ft | 273 kts | 12° |
| 2026-04-22 18:37 | 53.55060 | 49.40568 | 8681 ft | 273 kts | 12° |
| 2026-04-22 18:37 | 53.56900 | 49.41361 | 8679 ft | 273 kts | 12° |
| 2026-04-22 18:37 | 53.58729 | 49.42152 | 8682 ft | 274 kts | 12° |
| 2026-04-22 18:37 | 53.60558 | 49.42948 | 8686 ft | 273 kts | 12° |
| 2026-04-22 18:38 | 53.62414 | 49.43761 | 8686 ft | 273 kts | 12° |
| 2026-04-22 18:38 | 53.64254 | 49.44559 | 8690 ft | 274 kts | 12° |
| 2026-04-22 18:38 | 53.66094 | 49.45355 | 8694 ft | 274 kts | 12° |
| 2026-04-22 18:39 | 53.69764 | 49.46943 | 8694 ft | 273 kts | 12° |
| 2026-04-22 18:39 | 53.71607 | 49.47741 | 8697 ft | 273 kts | 12° |
| 2026-04-22 18:39 | 53.73434 | 49.48534 | 8690 ft | 273 kts | 12° |
| 2026-04-22 18:39 | 53.75273 | 49.49332 | 8690 ft | 273 kts | 12° |
| 2026-04-22 18:40 | 53.77119 | 49.50134 | 8684 ft | 273 kts | 12° |
| 2026-04-22 18:40 | 53.78964 | 49.50938 | 8684 ft | 273 kts | 12° |
| 2026-04-22 18:40 | 53.80801 | 49.51738 | 8684 ft | 272 kts | 12° |
| 2026-04-22 18:40 | 53.82624 | 49.52534 | 8678 ft | 272 kts | 12° |
| 2026-04-22 18:41 | 53.84460 | 49.53339 | 8681 ft | 273 kts | 12° |
| 2026-04-22 18:41 | 53.86292 | 49.54146 | 8674 ft | 273 kts | 12° |
| 2026-04-22 18:41 | 53.88108 | 49.54998 | 8673 ft | 274 kts | 19° |
| 2026-04-22 18:41 | 53.89728 | 49.56694 | 8683 ft | 275 kts | 44° |
| 2026-04-22 18:42 | 53.90992 | 49.59104 | 8685 ft | 276 kts | 51° |
| 2026-04-22 18:42 | 53.92173 | 49.61661 | 8679 ft | 275 kts | 52° |
| 2026-04-22 18:42 | 53.93333 | 49.64213 | 8681 ft | 275 kts | 52° |
| 2026-04-22 18:42 | 53.94498 | 49.66780 | 8678 ft | 275 kts | 53° |
| 2026-04-22 18:43 | 53.95670 | 49.69360 | 8685 ft | 275 kts | 53° |
| 2026-04-22 18:43 | 53.96833 | 49.71917 | 8682 ft | 275 kts | 53° |
| 2026-04-22 18:43 | 53.97994 | 49.74466 | 8683 ft | 276 kts | 53° |
| 2026-04-22 18:43 | 53.99169 | 49.77050 | 8678 ft | 274 kts | 53° |
| 2026-04-22 18:44 | 54.00325 | 49.79593 | 8677 ft | 275 kts | 53° |
| 2026-04-22 18:44 | 54.01499 | 49.82174 | 8680 ft | 275 kts | 53° |
| 2026-04-22 18:44 | 54.02666 | 49.84736 | 8681 ft | 275 kts | 53° |
| 2026-04-22 18:44 | 54.03831 | 49.87291 | 8679 ft | 275 kts | 53° |
| 2026-04-22 18:45 | 54.05011 | 49.89886 | 8685 ft | 275 kts | 53° |
| 2026-04-22 18:45 | 54.06173 | 49.92452 | 8688 ft | 274 kts | 53° |
| 2026-04-22 18:45 | 54.07320 | 49.94996 | 8685 ft | 274 kts | 53° |
| 2026-04-22 18:45 | 54.08483 | 49.97583 | 8679 ft | 274 kts | 53° |
| 2026-04-22 18:46 | 54.09652 | 50.00175 | 8678 ft | 276 kts | 53° |
| 2026-04-22 18:46 | 54.10818 | 50.02746 | 8685 ft | 275 kts | 53° |
| 2026-04-22 18:46 | 54.11986 | 50.05322 | 8689 ft | 274 kts | 53° |
| 2026-04-22 18:46 | 54.13158 | 50.07914 | 8687 ft | 274 kts | 53° |
| 2026-04-22 18:47 | 54.14325 | 50.10492 | 8693 ft | 276 kts | 53° |
| 2026-04-22 18:47 | 54.15491 | 50.13058 | 8698 ft | 276 kts | 53° |
| 2026-04-22 18:47 | 54.16643 | 50.15665 | 8699 ft | 275 kts | 59° |
| 2026-04-22 18:47 | 54.17313 | 50.18677 | 8705 ft | 272 kts | 86° |
| 2026-04-22 18:48 | 54.17130 | 50.21805 | 8700 ft | 266 kts | 114° |
| 2026-04-22 18:48 | 54.16278 | 50.24578 | 8700 ft | 262 kts | 126° |
| 2026-04-22 18:48 | 54.15273 | 50.27151 | 8690 ft | 260 kts | 128° |
| 2026-04-22 18:48 | 54.14254 | 50.29697 | 8693 ft | 262 kts | 128° |
| 2026-04-22 18:49 | 54.13231 | 50.32244 | 8686 ft | 262 kts | 128° |
| 2026-04-22 18:49 | 54.12232 | 50.34745 | 8680 ft | 251 kts | 128° |
| 2026-04-22 18:49 | 54.11290 | 50.37139 | 8688 ft | 235 kts | 128° |
| 2026-04-22 18:49 | 54.10405 | 50.39413 | 8682 ft | 227 kts | 128° |
| 2026-04-22 18:50 | 54.09540 | 50.41636 | 8679 ft | 228 kts | 128° |
| 2026-04-22 18:50 | 54.08665 | 50.43897 | 8682 ft | 227 kts | 128° |
| 2026-04-22 18:50 | 54.07800 | 50.46148 | 8682 ft | 228 kts | 128° |
| 2026-04-22 18:50 | 54.06932 | 50.48392 | 8684 ft | 228 kts | 128° |
| 2026-04-22 18:51 | 54.06063 | 50.50630 | 8683 ft | 228 kts | 128° |
| 2026-04-22 18:51 | 54.05188 | 50.52887 | 8679 ft | 228 kts | 128° |
| 2026-04-22 18:51 | 54.04327 | 50.55122 | 8680 ft | 227 kts | 128° |
| 2026-04-22 18:51 | 54.03455 | 50.57389 | 8681 ft | 228 kts | 127° |
| 2026-04-22 18:52 | 54.02589 | 50.59631 | 8671 ft | 228 kts | 128° |
| 2026-04-22 18:52 | 54.01726 | 50.61869 | 8672 ft | 228 kts | 128° |
| 2026-04-22 18:52 | 54.00863 | 50.64130 | 8667 ft | 228 kts | 128° |
| 2026-04-22 18:52 | 53.99997 | 50.66403 | 8668 ft | 227 kts | 128° |
| 2026-04-22 18:53 | 53.99140 | 50.68656 | 8668 ft | 228 kts | 128° |
| 2026-04-22 18:53 | 53.98284 | 50.70912 | 8667 ft | 228 kts | 128° |
| 2026-04-22 18:53 | 53.97420 | 50.73192 | 8667 ft | 228 kts | 128° |
| 2026-04-22 18:53 | 53.96574 | 50.75434 | 8665 ft | 228 kts | 128° |
| 2026-04-22 18:54 | 53.95722 | 50.77705 | 8659 ft | 227 kts | 128° |
| 2026-04-22 18:54 | 53.94876 | 50.79963 | 8667 ft | 227 kts | 128° |
| 2026-04-22 18:54 | 53.94020 | 50.82242 | 8667 ft | 227 kts | 128° |
| 2026-04-22 18:54 | 53.93184 | 50.84473 | 8669 ft | 227 kts | 128° |
| 2026-04-22 18:55 | 53.92334 | 50.86744 | 8674 ft | 227 kts | 128° |
| 2026-04-22 18:55 | 53.91479 | 50.89026 | 8672 ft | 228 kts | 128° |
| 2026-04-22 18:55 | 53.90631 | 50.91286 | 8669 ft | 227 kts | 128° |
| 2026-04-22 18:55 | 53.89780 | 50.93550 | 8673 ft | 228 kts | 128° |
| 2026-04-22 18:56 | 53.88939 | 50.95795 | 8676 ft | 228 kts | 128° |
| 2026-04-22 18:56 | 53.88092 | 50.98061 | 8681 ft | 229 kts | 128° |
| 2026-04-22 18:56 | 53.87230 | 51.00368 | 8681 ft | 229 kts | 128° |
| 2026-04-22 18:56 | 53.86395 | 51.02611 | 8682 ft | 228 kts | 128° |
| 2026-04-22 18:57 | 53.85548 | 51.04886 | 8673 ft | 227 kts | 128° |
| 2026-04-22 18:57 | 53.84703 | 51.07166 | 8673 ft | 228 kts | 127° |
| 2026-04-22 18:57 | 53.83848 | 51.09407 | 8668 ft | 225 kts | 135° |
| 2026-04-22 18:57 | 53.82677 | 51.11041 | 8665 ft | 216 kts | 162° |
| 2026-04-22 18:58 | 53.81253 | 51.11434 | 8670 ft | 206 kts | 187° |
| 2026-04-22 18:58 | 53.79826 | 51.11186 | 8674 ft | 206 kts | 189° |
| 2026-04-22 18:58 | 53.78402 | 51.10939 | 8680 ft | 207 kts | 189° |
| 2026-04-22 18:58 | 53.76975 | 51.10721 | 8686 ft | 207 kts | 188° |
| 2026-04-22 18:59 | 53.75516 | 51.10518 | 8676 ft | 206 kts | 187° |
| 2026-04-22 18:59 | 53.74095 | 51.10339 | 8673 ft | 205 kts | 187° |
| 2026-04-22 18:59 | 53.72679 | 51.10183 | 8673 ft | 206 kts | 187° |
| 2026-04-22 18:59 | 53.71234 | 51.10009 | 8661 ft | 208 kts | 187° |
| 2026-04-22 19:00 | 53.69807 | 51.09825 | 8677 ft | 208 kts | 187° |
| 2026-04-22 19:00 | 53.68356 | 51.09619 | 8671 ft | 207 kts | 188° |
| 2026-04-22 19:00 | 53.66925 | 51.09402 | 8674 ft | 207 kts | 188° |
| 2026-04-22 19:00 | 53.65490 | 51.09175 | 8675 ft | 210 kts | 189° |
| 2026-04-22 19:01 | 53.64040 | 51.08957 | 8663 ft | 207 kts | 187° |
| 2026-04-22 19:01 | 53.62620 | 51.08742 | 8658 ft | 206 kts | 188° |
| 2026-04-22 19:01 | 53.61192 | 51.08511 | 8663 ft | 206 kts | 188° |
| 2026-04-22 19:01 | 53.59776 | 51.08271 | 8658 ft | 207 kts | 188° |
| 2026-04-22 19:02 | 53.58322 | 51.08035 | 8668 ft | 209 kts | 188° |
| 2026-04-22 19:02 | 53.56893 | 51.07793 | 8667 ft | 207 kts | 188° |
| 2026-04-22 19:02 | 53.55473 | 51.07575 | 8669 ft | 206 kts | 188° |
| 2026-04-22 19:02 | 53.54034 | 51.07379 | 8667 ft | 205 kts | 188° |
| 2026-04-22 19:03 | 53.52611 | 51.07171 | 8656 ft | 206 kts | 191° |
| 2026-04-22 19:03 | 53.51311 | 51.06332 | 8659 ft | 204 kts | 219° |
| 2026-04-22 19:03 | 53.50489 | 51.04385 | 8649 ft | 209 kts | 251° |
| 2026-04-22 19:03 | 53.50459 | 51.01940 | 8656 ft | 218 kts | 283° |
| 2026-04-22 19:04 | 53.51278 | 50.99741 | 8661 ft | 231 kts | 314° |
| 2026-04-22 19:04 | 53.52729 | 50.98537 | 8672 ft | 240 kts | 346° |
| 2026-04-22 19:04 | 53.54429 | 50.98284 | 8669 ft | 245 kts | 354° |
| 2026-04-22 19:04 | 53.56118 | 50.98165 | 8665 ft | 244 kts | 354° |
| 2026-04-22 19:05 | 53.57807 | 50.97983 | 8665 ft | 243 kts | 353° |
| 2026-04-22 19:05 | 53.59497 | 50.97802 | 8653 ft | 244 kts | 354° |
| 2026-04-22 19:05 | 53.61197 | 50.97623 | 8650 ft | 243 kts | 353° |
| 2026-04-22 19:05 | 53.62876 | 50.97446 | 8664 ft | 244 kts | 353° |
| 2026-04-22 19:06 | 53.64568 | 50.97259 | 8662 ft | 243 kts | 353° |
| 2026-04-22 19:06 | 53.66253 | 50.97080 | 8668 ft | 243 kts | 353° |
| 2026-04-22 19:06 | 53.67955 | 50.96903 | 8672 ft | 244 kts | 353° |
| 2026-04-22 19:07 | 53.71344 | 50.96557 | 8676 ft | 244 kts | 354° |
| 2026-04-22 19:07 | 53.73033 | 50.96382 | 8672 ft | 244 kts | 352° |
| 2026-04-22 19:07 | 53.74703 | 50.96080 | 8554 ft | 238 kts | 339° |
| 2026-04-22 19:07 | 53.76062 | 50.94686 | 8288 ft | 222 kts | 302° |
| 2026-04-22 19:08 | 53.76624 | 50.92407 | 7942 ft | 209 kts | 270° |
| 2026-04-22 19:08 | 53.76603 | 50.89983 | 7623 ft | 207 kts | 261° |
| 2026-04-22 19:08 | 53.76410 | 50.87625 | 7352 ft | 202 kts | 246° |
| 2026-04-22 19:08 | 53.75679 | 50.85637 | 7002 ft | 200 kts | 229° |
| 2026-04-22 19:09 | 53.74949 | 50.83649 | 6720 ft | 201 kts | 248° |
| 2026-04-22 19:09 | 53.74787 | 50.81331 | 6675 ft | 200 kts | 271° |
| 2026-04-22 19:09 | 53.74907 | 50.78954 | 6686 ft | 206 kts | 268° |
| 2026-04-22 19:09 | 53.74920 | 50.76519 | 6672 ft | 209 kts | 264° |
| 2026-04-22 19:10 | 53.74860 | 50.74082 | 6674 ft | 209 kts | 263° |
| 2026-04-22 19:10 | 53.74792 | 50.71650 | 6681 ft | 207 kts | 264° |
| 2026-04-22 19:10 | 53.74752 | 50.69235 | 6667 ft | 207 kts | 263° |
| 2026-04-22 19:10 | 53.74736 | 50.66819 | 6523 ft | 204 kts | 270° |
| 2026-04-22 19:11 | 53.75137 | 50.64532 | 6460 ft | 205 kts | 292° |
| 2026-04-22 19:11 | 53.75627 | 50.62368 | 6248 ft | 195 kts | 268° |
| 2026-04-22 19:11 | 53.75364 | 50.60199 | 5880 ft | 189 kts | 244° |
| 2026-04-22 19:11 | 53.74995 | 50.58064 | 5520 ft | 195 kts | 263° |
| 2026-04-22 19:12 | 53.74954 | 50.55752 | 5153 ft | 197 kts | 266° |
| 2026-04-22 19:12 | 53.74912 | 50.53452 | 4854 ft | 195 kts | 264° |
| 2026-04-22 19:12 | 53.74846 | 50.51199 | 4615 ft | 191 kts | 265° |
| 2026-04-22 19:12 | 53.74798 | 50.48995 | 4429 ft | 187 kts | 265° |
| 2026-04-22 19:13 | 53.74755 | 50.46798 | 4201 ft | 185 kts | 266° |
| 2026-04-22 19:13 | 53.74715 | 50.44640 | 3981 ft | 185 kts | 265° |
| 2026-04-22 19:13 | 53.74661 | 50.42487 | 3968 ft | 182 kts | 265° |
| 2026-04-22 19:13 | 53.74612 | 50.40343 | 3966 ft | 185 kts | 266° |
| 2026-04-22 19:14 | 53.74567 | 50.38164 | 3963 ft | 185 kts | 265° |
| 2026-04-22 19:14 | 53.74517 | 50.35994 | 3962 ft | 183 kts | 266° |
| 2026-04-22 19:14 | 53.74469 | 50.33855 | 3962 ft | 183 kts | 266° |
| 2026-04-22 19:14 | 53.74414 | 50.31746 | 3961 ft | 185 kts | 266° |
| 2026-04-22 19:15 | 53.74381 | 50.30309 | 3965 ft | 186 kts | 268° |
| 2026-04-22 19:15 | 53.74318 | 50.27371 | 3966 ft | 187 kts | 268° |
| 2026-04-22 19:15 | 53.74256 | 50.25179 | 3965 ft | 186 kts | 262° |
| 2026-04-22 19:15 | 53.73777 | 50.23205 | 3867 ft | 182 kts | 235° |
| 2026-04-22 19:16 | 53.73006 | 50.21498 | 3574 ft | 185 kts | 235° |
| 2026-04-22 19:16 | 53.72279 | 50.19697 | 3295 ft | 186 kts | 239° |
| 2026-04-22 19:16 | 53.71596 | 50.17833 | 3014 ft | 188 kts | 240° |
| 2026-04-22 19:16 | 53.70936 | 50.16005 | 2953 ft | 182 kts | 239° |
| 2026-04-22 19:17 | 53.70264 | 50.14174 | 2972 ft | 185 kts | 239° |
| 2026-04-22 19:17 | 53.69584 | 50.12337 | 2966 ft | 183 kts | 238° |
| 2026-04-22 19:17 | 53.68912 | 50.10520 | 2966 ft | 183 kts | 238° |
| 2026-04-22 19:17 | 53.68088 | 50.08880 | 2963 ft | 186 kts | 215° |
| 2026-04-22 19:18 | 53.66883 | 50.08203 | 2969 ft | 182 kts | 180° |
| 2026-04-22 19:18 | 53.65651 | 50.08541 | 2971 ft | 182 kts | 163° |
| 2026-04-22 19:18 | 53.64470 | 50.09257 | 2957 ft | 182 kts | 159° |
| 2026-04-22 19:18 | 53.63284 | 50.10014 | 2794 ft | 175 kts | 160° |
| 2026-04-22 19:19 | 53.62161 | 50.10681 | 2523 ft | 166 kts | 160° |
| 2026-04-22 19:19 | 53.61145 | 50.11281 | 2381 ft | 151 kts | 161° |
| 2026-04-22 19:19 | 53.60152 | 50.11876 | 2136 ft | 149 kts | 158° |
| 2026-04-22 19:19 | 53.59188 | 50.12474 | 1959 ft | 149 kts | 159° |
| 2026-04-22 19:20 | 53.58207 | 50.13047 | 1741 ft | 147 kts | 158° |
| 2026-04-22 19:20 | 53.57262 | 50.13637 | 1578 ft | 144 kts | 159° |
| 2026-04-22 19:20 | 53.56292 | 50.14194 | 1413 ft | 146 kts | 159° |
| 2026-04-22 19:20 | 53.55343 | 50.14766 | 1193 ft | 144 kts | 160° |
| 2026-04-22 19:21 | 53.54400 | 50.15334 | 1024 ft | 145 kts | 158° |
| 2026-04-22 19:21 | 53.53448 | 50.15912 | 843 ft | 145 kts | 159° |
| 2026-04-22 19:21 | 53.52512 | 50.16451 | 670 ft | 141 kts | 159° |
| 2026-04-22 19:21 | 53.51601 | 50.17000 | 504 ft | 136 kts | 159° |
| 2026-04-22 19:22 | 53.50846 | 50.17448 | 492 ft | 86 kts | 159° |
| 2026-04-22 19:22 | 53.50387 | 50.17725 | 492 ft | 60 kts | 159° |
| 2026-04-22 19:22 | 53.50028 | 50.17941 | 492 ft | 50 kts | 161° |
| 2026-04-22 19:22 | 53.49702 | 50.18137 | 492 ft | 51 kts | 161° |
| 2026-04-22 19:23 | 53.49362 | 50.18325 | 492 ft | 40 kts | 184° |
| 2026-04-22 19:23 | 53.49294 | 50.17998 | 492 ft | 34 kts | 303° |
| 2026-04-22 19:23 | 53.49473 | 50.17853 | 492 ft | 25 kts | 340° |
| 2026-04-22 19:23 | 53.49636 | 50.17756 | 492 ft | 24 kts | 340° |
| 2026-04-22 19:24 | 53.49797 | 50.17660 | 492 ft | 24 kts | 340° |
| 2026-04-22 19:24 | 53.49953 | 50.17565 | 492 ft | 23 kts | 339° |
| 2026-04-22 19:24 | 53.50109 | 50.17471 | 492 ft | 24 kts | 338° |
| 2026-04-22 19:24 | 53.50309 | 50.17353 | 492 ft | 37 kts | 343° |
| 2026-04-22 19:25 | 53.50584 | 50.17187 | 492 ft | 39 kts | 338° |
| 2026-04-22 19:25 | 53.50832 | 50.17027 | 492 ft | 37 kts | 319° |
| 2026-04-22 19:25 | 53.50973 | 50.16678 | 492 ft | 34 kts | 300° |
| 2026-04-22 19:25 | 53.51091 | 50.16355 | 492 ft | 23 kts | 301° |
| 2026-04-22 19:26 | 53.51131 | 50.16247 | 492 ft | 4 kts | 301° |
| 2026-04-22 19:26 | 53.51150 | 50.16184 | 492 ft | 9 kts | 283° |
| 2026-04-22 19:26 | 53.51109 | 50.16008 | 492 ft | 20 kts | 234° |
| 2026-04-22 19:26 | 53.51039 | 50.16018 | 492 ft | 0 kts | 150° |